createdAt,value
2022-09-12T00:05:11.762Z,22.40
2022-09-12T00:13:17.173Z,22.50
2022-09-12T00:21:26.018Z,22.60
2022-09-12T00:29:31.357Z,22.70
2022-09-12T00:37:39.425Z,22.70
2022-09-12T00:45:45.381Z,22.80
2022-09-12T00:53:56.689Z,22.50
2022-09-12T01:02:02.138Z,22.40
2022-09-12T01:10:12.436Z,22.40
2022-09-12T01:18:28.121Z,22.50
2022-09-12T01:27:05.738Z,22.60
2022-09-12T01:35:23.124Z,22.70
2022-09-12T01:43:37.960Z,22.70
2022-09-12T01:51:49.799Z,22.60
2022-09-12T01:59:59.776Z,22.70
2022-09-12T02:08:12.277Z,22.60
2022-09-12T02:16:22.231Z,22.70
2022-09-12T02:24:34.458Z,22.60
2022-09-12T02:32:44.602Z,22.50
2022-09-12T02:40:52.492Z,22.40
2022-09-12T02:48:58.906Z,22.40
2022-09-12T02:57:08.804Z,22.30
2022-09-12T03:05:35.060Z,22.30
2022-09-12T03:13:56.223Z,22.40
2022-09-12T03:22:11.276Z,22.30
2022-09-12T03:30:19.349Z,22.30
2022-09-12T03:38:24.683Z,22.30
2022-09-12T03:46:32.500Z,22.10
2022-09-12T03:54:37.838Z,21.90
2022-09-12T04:02:45.854Z,22.10
2022-09-12T04:10:51.106Z,22.00
2022-09-12T04:18:59.452Z,22.00
2022-09-12T04:27:07.703Z,22.00
2022-09-12T04:35:15.770Z,22.00
2022-09-12T04:43:21.180Z,22.10
2022-09-12T04:51:31.142Z,22.30
2022-09-12T04:59:36.508Z,22.50
2022-09-12T05:07:44.473Z,22.40
2022-09-12T05:16:00.318Z,22.40
2022-09-12T05:24:08.884Z,22.30
2022-09-12T05:32:14.191Z,22.20
2022-09-12T05:40:22.114Z,22.20
2022-09-12T05:48:28.669Z,22.30
2022-09-12T05:56:40.078Z,22.60
2022-09-12T06:04:45.956Z,22.40
2022-09-12T06:12:54.058Z,22.00
2022-09-12T06:20:59.296Z,21.80
2022-09-12T06:29:07.859Z,21.50
2022-09-12T06:37:13.171Z,21.40
2022-09-12T06:45:21.546Z,21.20
2022-09-12T06:53:27.552Z,21.10
2022-09-12T07:01:35.530Z,20.90
2022-09-12T07:09:40.856Z,21.00
2022-09-12T07:17:48.778Z,21.00
2022-09-12T07:25:57.316Z,21.50
2022-09-12T07:34:08.193Z,21.50
2022-09-12T07:42:13.823Z,21.30
2022-09-12T07:50:21.755Z,21.80
2022-09-12T07:58:27.483Z,22.20
2022-09-12T08:06:37.270Z,22.40
2022-09-12T08:14:42.528Z,22.30
2022-09-12T08:22:50.559Z,22.30
2022-09-12T08:30:56.369Z,21.80
2022-09-12T08:39:08.103Z,21.30
2022-09-12T08:47:28.292Z,21.00
2022-09-12T08:55:38.683Z,20.90
2022-09-12T09:04:18.105Z,20.80
2022-09-12T09:12:32.043Z,20.50
2022-09-12T09:20:43.767Z,21.00
2022-09-12T09:28:55.776Z,20.10
2022-09-12T09:37:11.723Z,20.20
2022-09-12T09:45:25.318Z,20.50
2022-09-12T09:53:38.309Z,19.60
2022-09-12T10:01:55.919Z,19.50
2022-09-12T10:10:10.095Z,20.00
2022-09-12T10:18:37.127Z,19.90
2022-09-12T10:26:44.921Z,20.40
2022-09-12T10:34:57.106Z,20.80
2022-09-12T10:43:03.306Z,20.80
2022-09-12T10:51:29.188Z,21.00
2022-09-12T10:59:43.770Z,21.30
2022-09-12T11:07:56.826Z,21.40
2022-09-12T11:16:15.731Z,21.30
2022-09-12T11:24:46.273Z,22.20
2022-09-12T11:33:23.531Z,23.90
2022-09-12T11:41:34.742Z,30.20
2022-09-12T11:49:43.352Z,31.50
2022-09-12T11:57:57.171Z,30.60
2022-09-12T12:06:07.168Z,28.50
2022-09-12T12:14:22.947Z,34.10
2022-09-12T12:22:29.023Z,42.80
2022-09-12T12:31:05.820Z,40.10
2022-09-12T12:39:54.069Z,33.00
2022-09-12T12:48:11.070Z,29.40
2022-09-12T12:56:37.082Z,27.50
2022-09-12T13:04:49.207Z,26.10
2022-09-12T13:12:56.822Z,24.40
2022-09-12T13:21:13.866Z,24.20
2022-09-12T13:29:20.863Z,23.40
2022-09-12T13:37:43.237Z,23.20
2022-09-12T13:45:50.903Z,22.50
2022-09-12T13:54:02.162Z,22.30
2022-09-12T14:02:21.758Z,22.40
2022-09-12T14:10:36.509Z,22.50
2022-09-12T14:18:45.195Z,23.50
2022-09-12T14:26:56.792Z,24.00
2022-09-12T14:35:22.508Z,22.60
2022-09-12T14:43:32.765Z,20.50
2022-09-12T14:51:40.997Z,20.80
2022-09-12T14:59:49.223Z,21.20
2022-09-12T15:08:02.864Z,20.50
2022-09-12T15:16:13.346Z,21.50
2022-09-12T15:24:18.696Z,21.70
2022-09-12T15:32:30.237Z,21.60
2022-09-12T15:40:35.525Z,21.10
2022-09-12T15:48:43.573Z,21.40
2022-09-12T15:56:48.834Z,21.20
2022-09-12T16:04:56.807Z,21.40
2022-09-12T16:13:04.417Z,21.50
2022-09-12T16:21:15.265Z,21.50
2022-09-12T16:29:20.983Z,21.40
2022-09-12T16:37:28.898Z,21.30
2022-09-12T16:45:34.194Z,21.30
2022-09-12T16:53:42.247Z,21.30
2022-09-12T17:01:48.425Z,21.20
2022-09-12T17:09:57.192Z,21.00
2022-09-12T17:18:02.503Z,21.00
2022-09-12T17:26:12.145Z,20.80
2022-09-12T17:34:17.977Z,20.80
2022-09-12T17:42:25.853Z,20.60
2022-09-12T17:50:32.474Z,20.70
2022-09-12T17:58:41.940Z,20.50
2022-09-12T18:06:49.272Z,20.20
2022-09-12T18:14:57.142Z,20.10
2022-09-12T18:23:02.931Z,20.20
2022-09-12T18:31:15.588Z,20.20
2022-09-12T18:39:25.434Z,20.30
2022-09-12T18:47:35.473Z,20.30
2022-09-12T18:55:40.743Z,20.20
2022-09-12T19:03:49.526Z,19.70
2022-09-12T19:11:54.885Z,19.60
2022-09-12T19:20:02.778Z,19.50
2022-09-12T19:28:08.076Z,19.50
2022-09-12T19:36:41.299Z,19.40
2022-09-12T19:44:43.214Z,19.50
2022-09-12T19:52:51.167Z,19.50
2022-09-12T20:00:56.441Z,19.40
2022-09-12T20:09:04.312Z,19.30
2022-09-12T20:17:09.928Z,19.20
2022-09-12T20:25:18.277Z,19.10
2022-09-12T20:33:23.577Z,19.10
2022-09-12T20:41:33.094Z,18.70
2022-09-12T20:49:38.311Z,18.70
2022-09-12T20:57:46.186Z,18.70
2022-09-12T21:05:51.501Z,18.60
2022-09-12T21:13:59.904Z,18.30
2022-09-12T21:22:05.286Z,18.50
2022-09-12T21:30:14.590Z,18.70
2022-09-12T21:38:20.686Z,18.90
2022-09-12T21:46:28.681Z,19.20
2022-09-12T21:54:35.183Z,19.20
2022-09-12T22:02:43.409Z,19.30
2022-09-12T22:10:48.652Z,19.30
2022-09-12T22:18:56.902Z,19.30
2022-09-12T22:27:05.198Z,19.40
2022-09-12T22:35:13.156Z,19.40
2022-09-12T22:43:18.417Z,19.20
2022-09-12T22:51:27.023Z,19.20
2022-09-12T22:59:32.377Z,19.20
2022-09-12T23:07:40.252Z,19.30
2022-09-12T23:15:45.562Z,19.20
2022-09-12T23:23:53.845Z,19.10
2022-09-12T23:31:59.249Z,19.20
2022-09-12T23:40:09.084Z,19.20
2022-09-12T23:48:14.404Z,19.30
2022-09-12T23:56:22.424Z,19.20
